Flight Track Log - Related Links

Times and Time Zones

All times are in EDT time to prevent confusion due to time zone crossing. See the SBS701 flight status page for this flight to view local times or setup timezone preferences in your user account.

Time Position Orientation Groundspeed Altitude Reporting Facility
EDT Latitude Longitude Course Direction KTS MPH feet Rate Location/Type
Fri 04:37:22 PM 17.6833 -64.7667 360° North 140 161 1,700  Level San Juan Center
Fri 04:38:22 PM 17.7167 -64.7667 360° North 170 196 3,300 1,736 Climbing San Juan Center
Fri 04:39:23 PM 17.7333 -64.8167 289° West 190 219 5,200 1,835 Climbing San Juan Center
Fri 04:40:23 PM 17.7500 -64.8667 289° West 190 219 7,000 1,750 Climbing San Juan Center
Fri 04:41:23 PM 17.7833 -64.9167 305° West 190 219 8,700 1,587 Climbing San Juan Center
Fri 04:42:24 PM 17.8000 -64.9833 285° West 190 219 10,200 1,438 Climbing San Juan Center
Fri 04:43:24 PM 17.8167 -65.0333 289° West 200 230 11,600 893 Climbing San Juan Center
Fri 04:44:25 PM 17.8333 -65.0833 289° West 210 242 12,000 200 Climbing San Juan Center
Fri 04:45:24 PM 17.8500 -65.1500 285° West 250 288 12,000  Level San Juan Center
Fri 04:46:25 PM 17.8833 -65.2333 293° West 270 311 12,000  Level San Juan Center
Fri 04:47:25 PM 17.9000 -65.3000 285° West 270 311 12,000  Level San Juan Center
Fri 04:48:25 PM 17.9167 -65.3833 282° West 270 311 12,000  Level San Juan Center
Fri 04:49:26 PM 17.9333 -65.4500 285° West 270 311 12,000 446 Level San Juan Center
Fri 04:50:26 PM 17.9500 -65.5333 282° West 250 288 12,900 750 Climbing San Juan Center
Fri 04:51:26 PM 17.9667 -65.6000 285° West 230 265 13,500 545 Climbing San Juan Center
Fri 04:52:27 PM 17.9833 -65.6667 285° West 230 265 14,000 248 Climbing San Juan Center
Fri 04:53:27 PM 18.0000 -65.7333 285° West 250 288 14,000  Level San Juan Center
Fri 04:54:27 PM 18.0167 -65.8167 282° West 260 299 14,000  Level San Juan Center
Fri 04:55:28 PM 18.0333 -65.8833 285° West 270 311 14,000  Level San Juan Center
Fri 04:56:28 PM 18.0500 -65.9667 282° West 270 311 14,000  Level San Juan Center
Fri 04:57:28 PM 18.0667 -66.0333 285° West 260 299 14,000  Level San Juan Center
Fri 04:58:29 PM 18.0833 -66.1167 282° West 270 311 14,000  Level San Juan Center
Fri 04:59:29 PM 18.1000 -66.1833 285° West 270 311 14,000  Level San Juan Center
Fri 05:00:29 PM 18.1167 -66.2667 282° West 270 311 14,000  Level San Juan Center
Fri 05:01:30 PM 18.1333 -66.3500 282° West 270 311 14,000  Level San Juan Center
Fri 05:02:30 PM 18.1500 -66.4167 285° West 270 311 14,000  Level San Juan Center
Fri 05:03:30 PM 18.1667 -66.5000 282° West 280 322 14,000  Level San Juan Center
Fri 05:04:31 PM 18.1833 -66.5833 282° West 270 311 14,000  Level San Juan Center
Fri 05:05:31 PM 18.2000 -66.6500 285° West 270 311 14,000  Level San Juan Center
Fri 05:06:31 PM 18.2167 -66.7333 282° West 270 311 14,000  Level San Juan Center
Fri 05:07:32 PM 18.2333 -66.8167 282° West 270 311 14,000  Level San Juan Center
Fri 05:08:32 PM 18.2500 -66.8833 285° West 270 311 14,000  Level San Juan Center
Fri 05:09:32 PM 18.2667 -66.9667 282° West 270 311 14,000  Level San Juan Center
Fri 05:10:32 PM 18.2833 -67.0333 285° West 270 311 14,000  Level San Juan Center
Fri 05:11:33 PM 18.3000 -67.1167 282° West 270 311 14,000  Level San Juan Center
Fri 05:12:33 PM 18.3167 -67.1833 285° West 270 311 14,000  Level San Juan Center
Fri 05:13:33 PM 18.3167 -67.2667 270° West 270 311 14,000 -496 Level San Juan Center
Fri 05:14:34 PM 18.3500 -67.3500 293° West 280 322 13,000 -1,041 Descending San Juan Center
Fri 05:15:34 PM 18.3667 -67.4167 285° West 270 311 11,900 -1,050 Descending San Juan Center
Fri 05:16:34 PM 18.3667 -67.5000 270° West 280 322 10,900 -1,091 Descending San Juan Center
Fri 05:17:35 PM 18.3833 -67.5833 282° West 280 322 9,700 -1,091 Descending San Juan Center
Fri 05:18:35 PM 18.4000 -67.6667 282° West 270 311 8,700 -950 Descending San Juan Center
Fri 05:19:35 PM 18.4167 -67.7333 285° West 280 322 7,800 -992 Descending San Juan Center
Fri 05:20:36 PM 18.4333 -67.8167 282° West 280 322 6,700 -893 Descending San Juan Center
Fri 05:21:36 PM 18.4500 -67.9000 282° West 270 311 6,000 -350 Descending San Juan Center
Fri 05:22:36 PM 18.4667 -67.9667 285° West 250 288 6,000  Level San Juan Center
Fri 05:24:00 PM 18.4820 -68.0613 285° West  Level FlightAware Approximate
Fri 05:31:00 PM 18.5667 -68.3333 293° West  Level FlightAware Approximate
Fri 05:32:00 PM 18.5674 -68.3634 223° Southwest  Level Estimated
Fri 05:33:00 PM 18.5674 -68.3634 293° West  Level Estimated
Fri 05:34:00 PM 18.5674 -68.3634 91° East  Level Estimated
Fri 05:35:00 PM 18.5674 -68.3634 293° West  Level Estimated
Fri 05:36:00 PM 18.5674 -68.3634 91° East  Level Estimated
Fri 05:37:00 PM 18.5674 -68.3634 293° West  Level Estimated
Fri 05:38:00 PM 18.5674 -68.3634 91° East  Level Estimated
Fri 05:39:00 PM 18.5674 -68.3634 293° West  Level Estimated
Fri 05:40:00 PM 18.5674 -68.3634 91° East  Level Estimated
Fri 05:41:00 PM 18.5674 -68.3634 293° West  Level Estimated

Login

Don't have an account? Register now (free) for customized features, flight alerts, and more!